Broughton Island, Canada
Current Conditions -  °F | °C
As of 10:00 AM on Thursday 23 Oct 2014 (Local Time) from CYVM Reporting Station
Blowing Snow Blowing Snow  
Wind Chill:   Ceiling: Unl
Heat Index: 21°   Visibility: 15mi
Dew Point:   Wind: 16mph
Humidity: 54%   Direction: 330°NNW
Pressure: 29.57"   Gusts: 24mph
Location:  67.53°N, 63.77°W
Report Text: CYVM 231300Z 33014G21KT 15SM DRSN SKC M06/M14 A2957 RMK -3.1/-7.3/0/26 MEDIUM PACK SC TR SLP014
Loading
Personal Weather Stations






























Interactive Weather Map
Tropical Storm Tracking
New forecast layout! Learn more

10-Day Weather Forecast

Advertisements
Track Severe Weather on mobile